sensor_id;sensor_type;location;lat;lon;timestamp;P1;durP1;ratioP1;P2;durP2;ratioP2
70457;SDS011;57919;56.194;95.716;2022-09-09T00:05:14;27.17;;;10.73;;
70457;SDS011;57919;56.194;95.716;2022-09-09T00:15:38;42.60;;;20.77;;
70457;SDS011;57919;56.194;95.716;2022-09-09T00:36:04;46.40;;;18.23;;
70457;SDS011;57919;56.194;95.716;2022-09-09T00:46:38;56.13;;;20.80;;
70457;SDS011;57919;56.194;95.716;2022-09-09T00:56:47;63.03;;;27.20;;
70457;SDS011;57919;56.194;95.716;2022-09-09T01:07:09;52.15;;;21.05;;
70457;SDS011;57919;56.194;95.716;2022-09-09T01:17:21;52.27;;;22.17;;
70457;SDS011;57919;56.194;95.716;2022-09-09T01:27:39;18.87;;;7.80;;
70457;SDS011;57919;56.194;95.716;2022-09-09T01:37:46;15.68;;;4.80;;
70457;SDS011;57919;56.194;95.716;2022-09-09T01:47:48;11.10;;;4.43;;
70457;SDS011;57919;56.194;95.716;2022-09-09T02:29:15;12.93;;;4.38;;
70457;SDS011;57919;56.194;95.716;2022-09-09T02:39:21;12.03;;;1.93;;
70457;SDS011;57919;56.194;95.716;2022-09-09T03:00:07;6.17;;;1.40;;
70457;SDS011;57919;56.194;95.716;2022-09-09T03:10:09;9.17;;;1.83;;
70457;SDS011;57919;56.194;95.716;2022-09-09T03:20:11;9.27;;;1.50;;
70457;SDS011;57919;56.194;95.716;2022-09-09T03:30:14;5.57;;;1.43;;
70457;SDS011;57919;56.194;95.716;2022-09-09T03:40:17;10.20;;;2.20;;
70457;SDS011;57919;56.194;95.716;2022-09-09T03:50:21;9.47;;;1.47;;
70457;SDS011;57919;56.194;95.716;2022-09-09T04:00:23;6.60;;;1.37;;
70457;SDS011;57919;56.194;95.716;2022-09-09T04:10:27;7.28;;;1.60;;
70457;SDS011;57919;56.194;95.716;2022-09-09T04:20:32;9.13;;;1.80;;
70457;SDS011;57919;56.194;95.716;2022-09-09T04:30:34;11.40;;;2.05;;
70457;SDS011;57919;56.194;95.716;2022-09-09T04:40:37;12.30;;;2.17;;
70457;SDS011;57919;56.194;95.716;2022-09-09T04:50:44;7.90;;;1.60;;
70457;SDS011;57919;56.194;95.716;2022-09-09T05:01:05;5.00;;;1.60;;
70457;SDS011;57919;56.194;95.716;2022-09-09T05:21:25;5.47;;;0.80;;
70457;SDS011;57919;56.194;95.716;2022-09-09T05:31:29;3.90;;;0.90;;
70457;SDS011;57919;56.194;95.716;2022-09-09T05:41:33;5.53;;;1.10;;
70457;SDS011;57919;56.194;95.716;2022-09-09T05:51:37;2.75;;;0.75;;
70457;SDS011;57919;56.194;95.716;2022-09-09T06:01:44;8.20;;;0.70;;
70457;SDS011;57919;56.194;95.716;2022-09-09T06:11:55;5.68;;;0.45;;
70457;SDS011;57919;56.194;95.716;2022-09-09T06:21:58;6.77;;;1.30;;
70457;SDS011;57919;56.194;95.716;2022-09-09T06:32:02;9.83;;;1.30;;
70457;SDS011;57919;56.194;95.716;2022-09-09T06:42:05;5.57;;;0.77;;
70457;SDS011;57919;56.194;95.716;2022-09-09T06:52:25;4.67;;;1.07;;
70457;SDS011;57919;56.194;95.716;2022-09-09T07:02:29;4.82;;;1.20;;
70457;SDS011;57919;56.194;95.716;2022-09-09T07:12:32;6.83;;;0.97;;
70457;SDS011;57919;56.194;95.716;2022-09-09T07:22:35;14.87;;;1.77;;
70457;SDS011;57919;56.194;95.716;2022-09-09T07:32:37;7.38;;;1.50;;
70457;SDS011;57919;56.194;95.716;2022-09-09T07:42:41;7.63;;;2.00;;
70457;SDS011;57919;56.194;95.716;2022-09-09T07:52:43;7.80;;;2.30;;
70457;SDS011;57919;56.194;95.716;2022-09-09T08:02:46;5.93;;;1.60;;
70457;SDS011;57919;56.194;95.716;2022-09-09T08:12:48;7.90;;;2.60;;
70457;SDS011;57919;56.194;95.716;2022-09-09T08:22:50;4.65;;;1.50;;
70457;SDS011;57919;56.194;95.716;2022-09-09T08:32:54;12.17;;;2.60;;
70457;SDS011;57919;56.194;95.716;2022-09-09T08:42:57;10.95;;;6.63;;
70457;SDS011;57919;56.194;95.716;2022-09-09T08:53:05;9.23;;;2.70;;
70457;SDS011;57919;56.194;95.716;2022-09-09T09:13:34;7.45;;;2.25;;
70457;SDS011;57919;56.194;95.716;2022-09-09T09:23:59;11.13;;;2.03;;
70457;SDS011;57919;56.194;95.716;2022-09-09T09:34:07;6.97;;;2.45;;
70457;SDS011;57919;56.194;95.716;2022-09-09T09:44:22;14.60;;;3.67;;
70457;SDS011;57919;56.194;95.716;2022-09-09T09:54:32;38.43;;;17.40;;
70457;SDS011;57919;56.194;95.716;2022-09-09T10:04:39;13.02;;;4.70;;
70457;SDS011;57919;56.194;95.716;2022-09-09T10:25:01;11.98;;;2.50;;
70457;SDS011;57919;56.194;95.716;2022-09-09T10:45:39;17.43;;;6.13;;
70457;SDS011;57919;56.194;95.716;2022-09-09T10:55:45;10.43;;;4.55;;
70457;SDS011;57919;56.194;95.716;2022-09-09T11:05:57;13.40;;;4.20;;
70457;SDS011;57919;56.194;95.716;2022-09-09T11:16:25;16.45;;;6.72;;
70457;SDS011;57919;56.194;95.716;2022-09-09T11:26:33;23.30;;;9.23;;
70457;SDS011;57919;56.194;95.716;2022-09-09T11:47:01;21.20;;;11.48;;
70457;SDS011;57919;56.194;95.716;2022-09-09T11:57:04;53.73;;;33.53;;
70457;SDS011;57919;56.194;95.716;2022-09-09T12:07:32;44.50;;;28.90;;
70457;SDS011;57919;56.194;95.716;2022-09-09T12:17:45;22.10;;;12.53;;
70457;SDS011;57919;56.194;95.716;2022-09-09T12:38:03;27.50;;;8.95;;
70457;SDS011;57919;56.194;95.716;2022-09-09T12:48:12;26.27;;;13.80;;
70457;SDS011;57919;56.194;95.716;2022-09-09T12:58:20;33.40;;;14.25;;
70457;SDS011;57919;56.194;95.716;2022-09-09T13:08:22;23.27;;;13.70;;
70457;SDS011;57919;56.194;95.716;2022-09-09T13:18:30;54.30;;;28.00;;
70457;SDS011;57919;56.194;95.716;2022-09-09T13:28:35;156.23;;;61.42;;
70457;SDS011;57919;56.194;95.716;2022-09-09T13:38:40;106.83;;;54.37;;
70457;SDS011;57919;56.194;95.716;2022-09-09T13:48:57;83.30;;;43.67;;
70457;SDS011;57919;56.194;95.716;2022-09-09T13:59:20;85.67;;;40.57;;
70457;SDS011;57919;56.194;95.716;2022-09-09T14:09:22;124.03;;;54.07;;
70457;SDS011;57919;56.194;95.716;2022-09-09T14:19:24;63.53;;;27.08;;
70457;SDS011;57919;56.194;95.716;2022-09-09T14:29:26;56.80;;;27.03;;
70457;SDS011;57919;56.194;95.716;2022-09-09T14:39:28;72.93;;;34.50;;
70457;SDS011;57919;56.194;95.716;2022-09-09T14:49:30;92.73;;;34.87;;
70457;SDS011;57919;56.194;95.716;2022-09-09T14:59:32;78.27;;;32.93;;
70457;SDS011;57919;56.194;95.716;2022-09-09T15:09:35;70.38;;;32.35;;
70457;SDS011;57919;56.194;95.716;2022-09-09T15:19:38;76.50;;;32.80;;
70457;SDS011;57919;56.194;95.716;2022-09-09T15:29:41;83.40;;;36.10;;
70457;SDS011;57919;56.194;95.716;2022-09-09T15:39:43;84.80;;;37.80;;
70457;SDS011;57919;56.194;95.716;2022-09-09T15:49:45;78.73;;;38.70;;
70457;SDS011;57919;56.194;95.716;2022-09-09T15:59:47;88.50;;;42.55;;
70457;SDS011;57919;56.194;95.716;2022-09-09T16:09:49;89.33;;;44.33;;
70457;SDS011;57919;56.194;95.716;2022-09-09T16:19:54;63.78;;;32.15;;
70457;SDS011;57919;56.194;95.716;2022-09-09T16:29:58;45.03;;;18.83;;
70457;SDS011;57919;56.194;95.716;2022-09-09T16:40:00;42.83;;;20.57;;
70457;SDS011;57919;56.194;95.716;2022-09-09T16:50:04;115.93;;;43.25;;
70457;SDS011;57919;56.194;95.716;2022-09-09T17:00:06;100.30;;;38.40;;
70457;SDS011;57919;56.194;95.716;2022-09-09T17:10:09;75.88;;;30.40;;
70457;SDS011;57919;56.194;95.716;2022-09-09T17:20:11;31.30;;;14.03;;
70457;SDS011;57919;56.194;95.716;2022-09-09T17:30:13;21.00;;;10.43;;
70457;SDS011;57919;56.194;95.716;2022-09-09T17:40:17;19.73;;;7.95;;
70457;SDS011;57919;56.194;95.716;2022-09-09T17:50:20;12.30;;;5.03;;
70457;SDS011;57919;56.194;95.716;2022-09-09T18:00:23;63.50;;;22.55;;
70457;SDS011;57919;56.194;95.716;2022-09-09T18:10:24;15.10;;;6.40;;
70457;SDS011;57919;56.194;95.716;2022-09-09T18:20:27;16.33;;;5.50;;
70457;SDS011;57919;56.194;95.716;2022-09-09T18:30:28;13.85;;;6.28;;
70457;SDS011;57919;56.194;95.716;2022-09-09T18:40:31;13.07;;;5.30;;
70457;SDS011;57919;56.194;95.716;2022-09-09T18:50:33;13.55;;;6.22;;
70457;SDS011;57919;56.194;95.716;2022-09-09T19:00:54;14.70;;;6.03;;
70457;SDS011;57919;56.194;95.716;2022-09-09T19:10:59;14.60;;;5.27;;
70457;SDS011;57919;56.194;95.716;2022-09-09T19:21:13;12.98;;;5.10;;
70457;SDS011;57919;56.194;95.716;2022-09-09T19:31:20;12.77;;;4.43;;
70457;SDS011;57919;56.194;95.716;2022-09-09T19:41:23;12.02;;;4.25;;
70457;SDS011;57919;56.194;95.716;2022-09-09T19:51:28;13.73;;;4.60;;
70457;SDS011;57919;56.194;95.716;2022-09-09T20:01:35;9.47;;;4.53;;
70457;SDS011;57919;56.194;95.716;2022-09-09T20:11:39;10.80;;;4.47;;
70457;SDS011;57919;56.194;95.716;2022-09-09T20:21:42;11.37;;;4.87;;
70457;SDS011;57919;56.194;95.716;2022-09-09T20:31:46;10.35;;;4.43;;
70457;SDS011;57919;56.194;95.716;2022-09-09T20:41:49;10.07;;;4.10;;
70457;SDS011;57919;56.194;95.716;2022-09-09T20:51:51;24.03;;;9.03;;
70457;SDS011;57919;56.194;95.716;2022-09-09T21:01:54;10.73;;;4.53;;
70457;SDS011;57919;56.194;95.716;2022-09-09T21:11:56;9.43;;;4.53;;
70457;SDS011;57919;56.194;95.716;2022-09-09T21:21:58;12.50;;;5.25;;
70457;SDS011;57919;56.194;95.716;2022-09-09T21:32:00;11.37;;;5.17;;
70457;SDS011;57919;56.194;95.716;2022-09-09T21:42:03;12.50;;;6.00;;
70457;SDS011;57919;56.194;95.716;2022-09-09T21:52:05;17.60;;;6.90;;
70457;SDS011;57919;56.194;95.716;2022-09-09T22:02:07;14.47;;;6.30;;
70457;SDS011;57919;56.194;95.716;2022-09-09T22:12:10;9.67;;;4.80;;
70457;SDS011;57919;56.194;95.716;2022-09-09T22:22:12;11.75;;;4.28;;
70457;SDS011;57919;56.194;95.716;2022-09-09T22:32:14;16.07;;;6.53;;
70457;SDS011;57919;56.194;95.716;2022-09-09T22:42:16;14.20;;;5.47;;
70457;SDS011;57919;56.194;95.716;2022-09-09T22:52:18;12.30;;;4.90;;
70457;SDS011;57919;56.194;95.716;2022-09-09T23:02:20;13.87;;;5.03;;
70457;SDS011;57919;56.194;95.716;2022-09-09T23:12:22;11.93;;;4.75;;
70457;SDS011;57919;56.194;95.716;2022-09-09T23:22:25;12.47;;;4.73;;
70457;SDS011;57919;56.194;95.716;2022-09-09T23:32:28;22.67;;;4.87;;
70457;SDS011;57919;56.194;95.716;2022-09-09T23:42:29;24.45;;;5.90;;
70457;SDS011;57919;56.194;95.716;2022-09-09T23:52:33;14.77;;;5.40;;
